Weather at Entebbe International Airport

Public forecast

Using degrees Celsius for public forecast. Weather courtesy of forecast.io.

Current aviation weather report (METAR) for Entebbe International Airport

Retrieved 2022/01/22 20:30 UTC (25 minutes ago):

HUEN 222030Z 32003KT 8000 NSC 21/20 Q1017

Aviation forecast (TAF) for Entebbe International Airport

Retrieved 2022/01/22 18:00 UTC (3 hours ago):

TAF HUEN 221700Z 2218/2324 18010KT 9000 FEW022 FEW024CB TEMPO 2302/2305 VRB15KT 7000 TSRA SCT018 FEW020CB OVC100 BECMG 2306/2310 8000 RA